Time;durP1;ratioP1;P1;durP2;ratioP2;P2;SDS_P1;SDS_P2;PMS_P1;PMS_P2;Temp;Humidity;BMP_temperature;BMP_pressure;BME280_temperature;BME280_humidity;BME280_pressure;Samples;Min_cycle;Max_cycle;Signal;HPM_P1;HPM_P2
2023/06/19 00:01:13;;;;;;;8.35;5.20;;;;;;;-145.69;nan;51882.00;5076298;28;20669;-80
2023/06/19 00:03:39;;;;;;;9.23;5.65;;;;;;;-145.69;nan;51864.16;5076325;28;20206;-80
2023/06/19 00:06:06;;;;;;;12.25;5.20;;;;;;;-145.69;nan;51880.00;5076403;28;20209;-80
2023/06/19 00:08:33;;;;;;;6.53;5.30;;;;;;;-145.69;nan;51897.84;5075478;28;20195;-80
2023/06/19 00:10:59;;;;;;;10.48;5.43;;;;;;;-145.69;nan;51893.88;5076344;28;20207;-81
2023/06/19 00:13:26;;;;;;;8.43;4.82;;;;;;;-145.69;nan;51897.84;5076347;28;20210;-80
2023/06/19 00:15:52;;;;;;;6.50;5.13;;;;;;;-145.69;nan;51858.22;5076188;28;20313;-79
2023/06/19 00:18:20;;;;;;;7.00;4.60;;;;;;;-145.69;nan;51903.78;5075805;28;20202;-80
2023/06/19 00:20:47;;;;;;;8.23;4.95;;;;;;;-145.69;nan;51889.91;5076126;28;20294;-80
2023/06/19 00:23:16;;;;;;;8.50;5.32;;;;;;;-145.69;nan;51846.34;5075961;28;20324;-80
2023/06/19 00:25:44;;;;;;;7.63;4.60;;;;;;;-145.69;nan;51866.16;5076202;28;20207;-79
2023/06/19 00:28:13;;;;;;;7.93;4.88;;;;;;;-145.69;nan;51858.22;5076158;28;20199;-80
2023/06/19 00:30:40;;;;;;;8.07;4.63;;;;;;;-145.69;nan;51872.09;5075634;28;20195;-80
2023/06/19 00:33:08;;;;;;;8.25;4.88;;;;;;;-145.69;nan;51897.84;5075599;28;20206;-79
2023/06/19 00:35:36;;;;;;;12.38;5.38;;;;;;;-145.69;nan;51882.00;5074810;28;20226;-80
2023/06/19 00:38:03;;;;;;;6.60;4.85;;;;;;;-145.69;nan;51905.75;5069699;28;20217;-81
2023/06/19 00:40:31;;;;;;;6.82;4.70;;;;;;;-145.69;nan;51899.81;5075886;28;20202;-78
2023/06/19 00:42:57;;;;;;;8.73;5.15;;;;;;;-145.69;nan;51893.88;5075466;28;20206;-80
2023/06/19 00:45:25;;;;;;;6.15;4.25;;;;;;;-145.69;nan;51897.84;5075799;28;20195;-80
2023/06/19 00:47:52;;;;;;;8.00;4.57;;;;;;;-145.69;nan;51883.97;5074028;28;20238;-78
2023/06/19 00:50:18;;;;;;;10.98;5.13;;;;;;;-145.69;nan;51874.06;5075259;28;20206;-80
2023/06/19 00:52:46;;;;;;;7.82;5.30;;;;;;;-145.69;nan;51872.09;5075838;28;20209;-80
2023/06/19 00:55:13;;;;;;;9.90;5.25;;;;;;;-145.69;nan;51860.22;5075739;28;20569;-80
2023/06/19 00:57:41;;;;;;;7.50;4.80;;;;;;;-145.69;nan;51897.84;5089754;28;20289;-80
2023/06/19 01:00:09;;;;;;;8.13;5.43;;;;;;;-145.69;nan;51895.84;5091471;28;20476;-77
2023/06/19 01:02:36;;;;;;;8.77;4.80;;;;;;;-145.69;nan;51885.94;5075062;28;20780;-77
2023/06/19 01:05:03;;;;;;;9.70;4.43;;;;;;;-145.69;nan;51905.75;5075420;28;20202;-80
2023/06/19 01:07:40;;;;;;;6.28;4.35;;;;;;;-145.69;nan;51874.06;5064518;28;20287;-80
2023/06/19 01:10:13;;;;;;;6.20;4.90;;;;;;;-145.69;nan;51889.91;5063064;28;20603;-79
2023/06/19 01:12:52;;;;;;;10.57;5.20;;;;;;;-145.69;nan;51874.06;5074627;28;20191;-82
2023/06/19 01:15:19;;;;;;;13.07;4.57;;;;;;;-145.69;nan;51856.25;5075230;28;20634;-82
2023/06/19 01:17:47;;;;;;;9.85;4.65;;;;;;;-145.69;nan;51838.44;5075113;28;20234;-83
2023/06/19 01:20:14;;;;;;;7.72;4.68;;;;;;;-145.69;nan;51862.19;5075085;28;20290;-84
2023/06/19 01:22:43;;;;;;;10.77;4.85;;;;;;;-145.69;nan;51852.28;5075094;28;20646;-84
2023/06/19 01:25:10;;;;;;;9.32;5.35;;;;;;;-145.69;nan;51840.41;5075214;28;20209;-82
2023/06/19 01:27:37;;;;;;;12.32;5.05;;;;;;;-145.69;nan;51889.91;5074685;28;20195;-84
2023/06/19 01:30:05;;;;;;;10.35;4.75;;;;;;;-145.69;nan;51866.16;5074667;28;20653;-87
2023/06/19 01:32:39;;;;;;;9.57;4.70;;;;;;;-145.69;nan;51866.16;5074995;28;20198;-83
2023/06/19 01:35:08;;;;;;;11.50;4.85;;;;;;;-145.69;nan;51864.16;5074973;28;20202;-83
2023/06/19 01:37:39;;;;;;;22.80;5.05;;;;;;;-145.69;nan;51880.00;5074274;28;20295;-83
2023/06/19 01:40:10;;;;;;;10.63;5.70;;;;;;;-145.69;nan;51874.06;5074647;28;20194;-82
2023/06/19 01:42:39;;;;;;;7.53;5.20;;;;;;;-145.69;nan;51878.03;5074442;28;20211;-82
2023/06/19 01:45:08;;;;;;;6.85;4.55;;;;;;;-145.69;nan;51876.06;5074457;28;20198;-82
2023/06/19 01:47:34;;;;;;;8.75;5.07;;;;;;;-145.69;nan;51858.22;5074370;28;20224;-83
2023/06/19 01:50:01;;;;;;;8.75;4.90;;;;;;;-145.69;nan;51870.13;5074653;28;20263;-83
2023/06/19 01:52:28;;;;;;;12.95;5.00;;;;;;;-145.69;nan;51882.00;5074035;28;20198;-83
2023/06/19 01:54:54;;;;;;;7.50;4.70;;;;;;;-145.69;nan;51905.75;5074251;28;20203;-82
2023/06/19 01:57:22;;;;;;;6.95;5.28;;;;;;;-145.69;nan;51899.81;5073980;28;20237;-83
2023/06/19 01:59:49;;;;;;;7.75;5.15;;;;;;;-145.69;nan;51864.16;5073306;28;20272;-83
2023/06/19 02:02:15;;;;;;;9.57;5.18;;;;;;;-145.69;nan;51901.78;5074333;28;20202;-83
2023/06/19 02:04:42;;;;;;;6.72;4.80;;;;;;;-145.69;nan;51919.63;5074303;28;20195;-82
2023/06/19 02:07:08;;;;;;;7.03;4.93;;;;;;;-145.69;nan;51889.91;5073616;28;20252;-83
2023/06/19 02:09:35;;;;;;;10.63;5.20;;;;;;;-145.69;nan;51876.06;5074105;28;20199;-84
2023/06/19 02:12:01;;;;;;;9.27;5.03;;;;;;;-145.69;nan;51889.91;5073868;28;20561;-84
2023/06/19 02:14:29;;;;;;;7.40;4.35;;;;;;;-145.69;nan;51889.91;5073798;28;20203;-83
2023/06/19 02:16:56;;;;;;;7.05;4.63;;;;;;;-145.69;nan;51919.63;5073004;28;20250;-83
2023/06/19 02:19:22;;;;;;;8.07;4.63;;;;;;;-145.69;nan;51878.03;5074047;28;20199;-84
2023/06/19 02:21:48;;;;;;;6.82;4.75;;;;;;;-145.69;nan;51872.09;5073686;28;20634;-80
2023/06/19 02:24:15;;;;;;;7.38;5.07;;;;;;;-145.69;nan;51901.78;5074067;28;20558;-82
2023/06/19 02:26:43;;;;;;;5.93;4.60;;;;;;;-145.69;nan;51883.97;5073788;28;20206;-81
2023/06/19 02:29:10;;;;;;;7.13;5.13;;;;;;;-145.69;nan;51893.88;5073814;28;20202;-83
2023/06/19 02:31:38;;;;;;;7.00;4.70;;;;;;;-145.69;nan;51893.88;5073405;28;20199;-83
2023/06/19 02:34:04;;;;;;;6.43;5.10;;;;;;;-145.69;nan;51882.00;5073781;28;20209;-84
2023/06/19 02:36:31;;;;;;;12.00;5.10;;;;;;;-145.69;nan;51919.63;5067464;28;20227;-83
2023/06/19 02:38:57;;;;;;;7.22;4.85;;;;;;;-145.69;nan;51907.72;5071746;28;20203;-83
2023/06/19 02:41:24;;;;;;;5.75;4.53;;;;;;;-145.69;nan;51882.00;5073371;28;20206;-83
2023/06/19 02:43:50;;;;;;;6.50;4.88;;;;;;;-145.69;nan;51899.81;5073616;28;20221;-83
2023/06/19 02:46:17;;;;;;;9.20;5.43;;;;;;;-145.69;nan;51947.34;5072966;28;20198;-82
2023/06/19 02:48:45;;;;;;;6.80;4.43;;;;;;;-145.69;nan;51897.84;5072910;28;20239;-82
2023/06/19 02:51:12;;;;;;;8.00;5.03;;;;;;;-145.69;nan;51878.03;5073158;28;20194;-83
2023/06/19 02:53:38;;;;;;;7.75;4.57;;;;;;;-145.69;nan;51925.56;5073629;28;20256;-82
2023/06/19 02:56:05;;;;;;;6.55;4.75;;;;;;;-145.69;nan;51866.16;5073265;28;20244;-83
2023/06/19 02:58:31;;;;;;;7.07;4.95;;;;;;;-145.69;nan;51901.78;5073118;28;20669;-83
2023/06/19 03:00:59;;;;;;;6.57;4.45;;;;;;;-145.69;nan;51903.78;5073122;28;20202;-83
2023/06/19 03:03:26;;;;;;;7.28;4.97;;;;;;;-145.69;nan;51885.94;5073108;28;20198;-83
2023/06/19 03:05:53;;;;;;;7.53;5.03;;;;;;;-145.69;nan;51893.88;5072900;28;20194;-82
2023/06/19 03:08:20;;;;;;;12.60;5.20;;;;;;;-145.69;nan;51913.69;5073159;28;20207;-83
2023/06/19 03:10:46;;;;;;;7.43;4.45;;;;;;;-145.69;nan;51905.75;5073007;28;20211;-83
2023/06/19 03:13:13;;;;;;;11.65;5.70;;;;;;;-145.69;nan;51883.97;5073172;28;20199;-84
2023/06/19 03:15:40;;;;;;;6.82;4.60;;;;;;;-145.69;nan;51899.81;5072899;28;20203;-82
2023/06/19 03:18:09;;;;;;;5.80;4.20;;;;;;;-145.69;nan;51905.75;5072315;28;20234;-82
2023/06/19 03:20:35;;;;;;;4.55;3.47;;;;;;;-145.69;nan;51876.06;5073018;28;20199;-82
2023/06/19 03:23:03;;;;;;;5.95;4.00;;;;;;;-145.69;nan;51887.94;5073085;28;20207;-83
2023/06/19 03:25:34;;;;;;;5.07;2.72;;;;;;;-145.69;nan;51923.56;5072753;28;20677;-83
2023/06/19 03:28:02;;;;;;;4.82;3.28;;;;;;;-145.69;nan;51907.72;5072784;28;20256;-83
2023/06/19 03:30:29;;;;;;;3.83;2.80;;;;;;;-145.69;nan;51893.88;5072854;28;20207;-83
2023/06/19 03:32:55;;;;;;;4.97;3.17;;;;;;;-145.69;nan;51911.69;5072938;28;20202;-83
2023/06/19 03:35:21;;;;;;;6.43;3.38;;;;;;;-145.69;nan;51921.59;5072850;28;20198;-83
2023/06/19 03:37:48;;;;;;;5.65;3.10;;;;;;;-145.69;nan;51909.72;5072140;28;20226;-83
2023/06/19 03:40:16;;;;;;;4.22;2.95;;;;;;;-145.69;nan;51911.69;5072961;28;20653;-83
2023/06/19 03:42:43;;;;;;;4.57;3.00;;;;;;;-145.69;nan;51909.72;5072640;28;20211;-83
2023/06/19 03:45:10;;;;;;;3.72;2.90;;;;;;;-145.69;nan;51893.88;5072217;28;20207;-83
2023/06/19 03:47:37;;;;;;;3.72;2.55;;;;;;;-145.69;nan;51915.66;5072421;28;20194;-82
2023/06/19 03:50:09;;;;;;;2.95;2.35;;;;;;;-145.69;nan;51907.72;5072516;28;20531;-82
2023/06/19 03:52:36;;;;;;;3.40;2.55;;;;;;;-145.69;nan;51882.00;5072713;28;20199;-83
2023/06/19 03:55:02;;;;;;;5.97;2.80;;;;;;;-145.69;nan;51913.69;5072642;28;20210;-83
2023/06/19 03:57:30;;;;;;;3.47;2.30;;;;;;;-145.69;nan;51917.63;5072398;28;20226;-80
2023/06/19 03:59:58;;;;;;;4.43;2.92;;;;;;;-145.69;nan;51889.91;5072637;28;20253;-82
2023/06/19 04:02:25;;;;;;;5.38;3.28;;;;;;;-145.69;nan;51899.81;5072444;28;20199;-82
2023/06/19 04:04:54;;;;;;;5.20;3.08;;;;;;;-145.69;nan;51913.69;5072819;28;20293;-83
2023/06/19 04:07:20;;;;;;;7.75;3.60;;;;;;;-145.69;nan;51925.56;5072090;28;20264;-83
2023/06/19 04:09:47;;;;;;;4.75;3.30;;;;;;;-145.69;nan;51905.75;5071933;28;20203;-82
2023/06/19 04:12:13;;;;;;;4.57;3.33;;;;;;;-145.69;nan;51925.56;5072226;28;20199;-81
2023/06/19 04:14:41;;;;;;;6.82;3.50;;;;;;;-145.69;nan;51917.63;5072477;28;20203;-81
2023/06/19 04:17:07;;;;;;;4.55;2.85;;;;;;;-145.69;nan;51907.72;5071987;28;20223;-83
2023/06/19 04:19:34;;;;;;;5.97;3.30;;;;;;;-145.69;nan;51937.44;5071747;28;20187;-83
2023/06/19 04:22:00;;;;;;;7.05;3.53;;;;;;;-145.69;nan;51923.56;5072606;28;20776;-84
2023/06/19 04:24:30;;;;;;;6.05;3.28;;;;;;;-145.69;nan;51895.84;5072386;28;20203;-84
2023/06/19 04:26:56;;;;;;;6.07;3.40;;;;;;;-145.69;nan;51917.63;5072104;28;20206;-82
2023/06/19 04:29:23;;;;;;;4.97;3.20;;;;;;;-145.69;nan;51947.34;5072137;28;20206;-82
2023/06/19 04:31:51;;;;;;;3.58;2.80;;;;;;;-145.69;nan;51943.38;5072331;28;20203;-82
2023/06/19 04:34:20;;;;;;;4.13;2.88;;;;;;;-145.69;nan;51957.25;5072396;28;20202;-82
2023/06/19 04:36:47;;;;;;;3.95;2.88;;;;;;;-145.69;nan;51901.78;5072565;28;20257;-82
2023/06/19 04:39:14;;;;;;;9.43;3.33;;;;;;;-145.69;nan;51933.47;5074230;28;20195;-82
2023/06/19 04:41:43;;;;;;;3.83;2.63;;;;;;;-145.69;nan;51961.19;5075979;28;20209;-82
2023/06/19 04:44:11;;;;;;;4.35;2.80;;;;;;;-145.69;nan;51961.19;5075509;28;20199;-82
2023/06/19 04:46:38;;;;;;;5.20;2.92;;;;;;;-145.69;nan;51905.75;5075324;28;20203;-82
2023/06/19 04:49:06;;;;;;;3.42;2.55;;;;;;;-145.69;nan;51911.69;5075268;28;20230;-83
2023/06/19 04:51:33;;;;;;;3.60;2.70;;;;;;;-145.69;nan;51953.28;5075483;28;20229;-82
2023/06/19 04:53:59;;;;;;;4.63;3.22;;;;;;;-145.69;nan;51947.34;5075168;28;20257;-82
2023/06/19 04:56:28;;;;;;;3.60;2.90;;;;;;;-145.69;nan;51953.28;5075714;28;20201;-82
2023/06/19 04:58:59;;;;;;;3.80;2.38;;;;;;;-145.69;nan;51963.19;5074454;28;20233;-83
2023/06/19 05:01:28;;;;;;;2.90;2.40;;;;;;;-145.69;nan;51957.25;5075549;28;20253;-82
2023/06/19 05:03:55;;;;;;;2.45;2.13;;;;;;;-145.69;nan;51941.41;5075355;28;20566;-82
2023/06/19 05:06:23;;;;;;;3.17;2.28;;;;;;;-145.69;nan;51925.56;5074798;28;20535;-82
2023/06/19 05:08:50;;;;;;;4.53;2.42;;;;;;;-145.69;nan;51927.53;5073608;28;20202;-82
2023/06/19 05:11:17;;;;;;;3.10;2.00;;;;;;;-145.69;nan;51925.56;5075246;28;20195;-82
2023/06/19 05:13:46;;;;;;;3.55;2.15;;;;;;;-145.69;nan;51923.56;5074982;28;20199;-82
2023/06/19 05:16:16;;;;;;;4.28;1.98;;;;;;;-145.69;nan;51957.25;5075160;28;20244;-82
2023/06/19 05:18:42;;;;;;;3.15;1.77;;;;;;;-145.69;nan;51949.31;5074679;28;20233;-82
2023/06/19 05:21:09;;;;;;;3.17;2.10;;;;;;;-145.69;nan;51945.34;5074758;28;20211;-79
2023/06/19 05:23:40;;;;;;;3.00;1.85;;;;;;;-145.69;nan;51953.28;5075166;28;20198;-82
2023/06/19 05:26:07;;;;;;;2.75;2.10;;;;;;;-145.69;nan;51911.69;5075006;28;20207;-82
2023/06/19 05:28:33;;;;;;;6.65;1.95;;;;;;;-145.69;nan;51945.34;5074747;28;20600;-82
2023/06/19 05:31:00;;;;;;;6.10;1.80;;;;;;;-145.69;nan;51925.56;5075058;28;20199;-82
2023/06/19 05:33:27;;;;;;;1.90;1.70;;;;;;;-145.69;nan;51913.69;5074598;28;20199;-82
2023/06/19 05:35:54;;;;;;;2.78;2.20;;;;;;;-145.69;nan;51913.69;5074678;28;20614;-82
2023/06/19 05:38:20;;;;;;;4.03;1.92;;;;;;;-145.69;nan;51943.38;5074172;28;20218;-83
2023/06/19 05:40:51;;;;;;;2.58;1.90;;;;;;;-145.69;nan;51929.50;5074492;28;20198;-82
2023/06/19 05:43:19;;;;;;;2.13;1.63;;;;;;;-145.69;nan;51913.69;5074736;28;20203;-82
2023/06/19 05:45:45;;;;;;;2.63;1.90;;;;;;;-145.69;nan;51933.47;5074495;28;20202;-82
2023/06/19 05:48:15;;;;;;;3.80;2.28;;;;;;;-145.69;nan;51919.63;5072534;28;20223;-80
2023/06/19 05:50:41;;;;;;;3.22;2.45;;;;;;;-145.69;nan;51913.69;5073057;28;20213;-82
2023/06/19 05:53:08;;;;;;;5.72;2.63;;;;;;;-145.69;nan;51923.56;5074019;28;20206;-81
2023/06/19 05:55:34;;;;;;;4.15;2.38;;;;;;;-145.69;nan;51917.63;5074263;28;20205;-81
2023/06/19 05:58:02;;;;;;;2.80;2.22;;;;;;;-145.69;nan;51939.41;5074256;28;20623;-82
2023/06/19 06:00:29;;;;;;;3.47;2.40;;;;;;;-145.69;nan;51933.47;5074007;28;20278;-81
2023/06/19 06:02:59;;;;;;;2.75;2.22;;;;;;;-145.69;nan;51917.63;5073957;28;20256;-82
2023/06/19 06:05:36;;;;;;;2.28;2.03;;;;;;;-145.69;nan;51911.69;5073763;28;20199;-82
2023/06/19 06:08:02;;;;;;;3.00;2.20;;;;;;;-145.69;nan;51925.56;5073835;28;20206;-82
2023/06/19 06:10:32;;;;;;;3.83;2.40;;;;;;;-145.69;nan;51909.72;5074090;28;20214;-82
2023/06/19 06:12:58;;;;;;;3.10;2.50;;;;;;;-145.69;nan;51907.72;5073472;28;20558;-82
2023/06/19 06:15:26;;;;;;;5.93;2.90;;;;;;;-145.69;nan;51901.78;5071988;28;20202;-81
2023/06/19 06:17:53;;;;;;;4.75;2.80;;;;;;;-145.69;nan;51945.34;5073671;28;20593;-83
2023/06/19 06:20:19;;;;;;;3.15;2.60;;;;;;;-145.69;nan;51893.88;5073630;28;20198;-82
2023/06/19 06:22:46;;;;;;;3.47;2.50;;;;;;;-145.69;nan;51897.84;5073500;28;20533;-82
2023/06/19 06:25:12;;;;;;;4.40;1.83;;;;;;;-145.69;nan;51907.72;5073491;28;20730;-80
2023/06/19 06:27:38;;;;;;;4.45;2.22;;;;;;;-145.69;nan;51919.63;5073449;28;20195;-79
2023/06/19 06:30:06;;;;;;;3.17;2.53;;;;;;;-145.69;nan;51883.97;5073561;28;20609;-81
2023/06/19 06:32:34;;;;;;;2.90;2.20;;;;;;;-145.69;nan;51880.00;5073585;28;20206;-82
2023/06/19 06:35:01;;;;;;;6.57;3.00;;;;;;;-145.69;nan;51870.13;5072518;28;20667;-85
2023/06/19 06:37:27;;;;;;;4.75;2.33;;;;;;;-145.69;nan;51874.06;5072845;28;20218;-83
2023/06/19 06:39:54;;;;;;;3.10;2.08;;;;;;;-145.69;nan;51876.06;5073601;28;20708;-85
2023/06/19 06:42:20;;;;;;;3.20;2.22;;;;;;;-145.69;nan;51889.91;5070398;28;20206;-86
2023/06/19 06:44:47;;;;;;;3.58;2.53;;;;;;;-145.69;nan;51878.03;5074219;28;20198;-83
2023/06/19 06:47:13;;;;;;;2.45;2.17;;;;;;;-145.69;nan;51846.34;5073986;28;20229;-82
2023/06/19 06:49:41;;;;;;;4.90;2.67;;;;;;;-145.69;nan;51856.25;5073783;28;20238;-80
2023/06/19 06:52:11;;;;;;;3.25;2.50;;;;;;;-145.69;nan;51917.63;5073710;28;20206;-83
2023/06/19 06:54:37;;;;;;;4.20;2.55;;;;;;;-145.69;nan;51882.00;5073647;28;20202;-80
2023/06/19 06:57:06;;;;;;;4.70;2.50;;;;;;;-145.69;nan;51874.06;5073496;28;20203;-80
2023/06/19 06:59:37;;;;;;;3.33;2.47;;;;;;;-145.69;nan;51868.13;5073128;28;20230;-84
2023/06/19 07:02:04;;;;;;;4.05;2.70;;;;;;;-145.69;nan;51882.00;5073643;28;20202;-81
2023/06/19 07:04:31;;;;;;;4.38;2.72;;;;;;;-145.69;nan;51882.00;5073057;28;20554;-80
2023/06/19 07:06:59;;;;;;;4.43;2.33;;;;;;;-145.69;nan;51858.22;5073205;28;20199;-80
2023/06/19 07:09:26;;;;;;;6.68;2.40;;;;;;;-145.69;nan;51850.31;5072770;28;20203;-80
2023/06/19 07:11:53;;;;;;;3.92;2.78;;;;;;;-145.69;nan;51864.16;5072485;28;20217;-82
2023/06/19 07:14:19;;;;;;;3.15;2.40;;;;;;;-145.69;nan;51838.44;5072990;28;20273;-85
2023/06/19 07:16:46;;;;;;;3.38;2.50;;;;;;;-145.69;nan;51878.03;5072681;28;20554;-79
2023/06/19 07:19:14;;;;;;;4.13;2.70;;;;;;;-145.69;nan;51858.22;5072796;28;20253;-80
2023/06/19 07:21:42;;;;;;;4.63;2.50;;;;;;;-145.69;nan;51868.13;5073130;28;20198;-81
2023/06/19 07:24:09;;;;;;;6.20;2.67;;;;;;;-145.69;nan;51860.22;5071318;28;20654;-83
2023/06/19 07:26:36;;;;;;;6.68;2.75;;;;;;;-145.69;nan;51850.31;5072848;28;20191;-83
2023/06/19 07:29:03;;;;;;;5.72;2.60;;;;;;;-145.69;nan;51870.13;5072628;28;20236;-83
2023/06/19 07:31:29;;;;;;;4.40;2.80;;;;;;;-145.69;nan;51864.16;5071648;28;20251;-85
2023/06/19 07:33:56;;;;;;;4.93;2.38;;;;;;;-145.69;nan;51842.38;5073008;28;20210;-84
2023/06/19 07:36:22;;;;;;;3.63;2.47;;;;;;;-145.69;nan;51846.34;5073182;28;20206;-84
2023/06/19 07:38:49;;;;;;;4.22;2.25;;;;;;;-145.69;nan;51838.44;5073426;28;20229;-84
2023/06/19 07:41:17;;;;;;;3.03;2.08;;;;;;;-145.69;nan;51816.66;5073737;28;20328;-85
2023/06/19 07:43:43;;;;;;;2.72;2.33;;;;;;;-145.69;nan;51800.81;5071867;28;20201;-86
2023/06/19 07:46:10;;;;;;;2.55;2.00;;;;;;;-145.69;nan;51814.66;5073612;28;20233;-86
2023/06/19 07:48:37;;;;;;;4.18;2.10;;;;;;;-145.69;nan;51798.81;5072994;28;20223;-85
2023/06/19 07:51:03;;;;;;;2.40;1.70;;;;;;;-145.69;nan;51765.16;5072634;28;20557;-84
2023/06/19 07:53:30;;;;;;;4.25;2.00;;;;;;;-145.69;nan;51783.00;5071684;28;20237;-86
2023/06/19 07:55:56;;;;;;;2.47;1.63;;;;;;;-145.69;nan;51802.78;5073020;28;20199;-86
2023/06/19 07:58:24;;;;;;;2.50;1.90;;;;;;;-145.69;nan;51798.81;5072971;28;20222;-84
2023/06/19 08:00:51;;;;;;;4.13;2.00;;;;;;;-145.69;nan;51773.09;5072734;28;20225;-84
2023/06/19 08:03:17;;;;;;;3.45;2.28;;;;;;;-145.69;nan;51783.00;5072632;28;20199;-85
2023/06/19 08:05:44;;;;;;;2.55;2.03;;;;;;;-145.69;nan;51783.00;5071945;28;20199;-82
2023/06/19 08:08:12;;;;;;;3.17;2.10;;;;;;;-145.69;nan;51771.09;5072041;28;20202;-87
2023/06/19 08:10:39;;;;;;;2.50;1.65;;;;;;;-145.69;nan;51773.09;5072906;28;20194;-84
2023/06/19 08:13:05;;;;;;;4.70;1.83;;;;;;;-145.69;nan;51779.03;5076220;28;20260;-85
2023/06/19 08:15:33;;;;;;;2.22;1.50;;;;;;;-145.69;nan;51802.78;5076267;28;20190;-83
2023/06/19 08:17:59;;;;;;;2.22;1.75;;;;;;;-145.69;nan;51763.19;5076340;28;20241;-82
2023/06/19 08:20:26;;;;;;;3.78;1.75;;;;;;;-145.69;nan;51783.00;5076512;28;20195;-84
2023/06/19 08:22:53;;;;;;;2.38;1.77;;;;;;;-145.69;nan;51802.78;5076082;28;20191;-86
2023/06/19 08:25:19;;;;;;;3.17;1.73;;;;;;;-145.69;nan;51810.72;5076525;28;20600;-86
2023/06/19 08:27:46;;;;;;;2.50;1.80;;;;;;;-145.69;nan;51771.09;5076621;28;20203;-86
2023/06/19 08:30:12;;;;;;;2.08;1.40;;;;;;;-145.69;nan;51773.09;5076119;28;20202;-84
2023/06/19 08:32:43;;;;;;;2.60;2.08;;;;;;;-145.69;nan;51777.03;5076527;28;20260;-84
2023/06/19 08:35:11;;;;;;;2.15;1.95;;;;;;;-145.69;nan;51786.94;5076754;28;20205;-85
2023/06/19 08:37:38;;;;;;;3.75;1.83;;;;;;;-145.69;nan;51771.09;5067317;28;20287;-88
2023/06/19 08:40:10;;;;;;;2.38;1.90;;;;;;;-145.69;nan;51771.09;5057046;28;20231;-90
2023/06/19 08:42:36;;;;;;;3.08;2.20;;;;;;;-145.69;nan;51779.03;5076697;28;20210;-90
2023/06/19 08:45:03;;;;;;;2.05;1.75;;;;;;;-145.69;nan;51761.22;5076570;28;20194;-90
2023/06/19 08:47:31;;;;;;;2.70;1.80;;;;;;;-145.69;nan;51771.09;5077415;28;20203;-89
2023/06/19 08:49:59;;;;;;;5.00;2.35;;;;;;;-145.69;nan;51773.09;5075183;28;20252;-88
2023/06/19 08:52:26;;;;;;;2.75;2.20;;;;;;;-145.69;nan;51810.72;5076193;28;20206;-86
2023/06/19 08:54:54;;;;;;;4.13;2.40;;;;;;;-145.69;nan;51790.91;5076824;28;20237;-87
2023/06/19 08:57:21;;;;;;;4.38;2.50;;;;;;;-145.69;nan;51759.22;5076298;28;20195;-83
2023/06/19 08:59:51;;;;;;;2.28;2.05;;;;;;;-145.69;nan;51806.75;5075993;28;20241;-88
2023/06/19 09:02:18;;;;;;;5.93;2.63;;;;;;;-145.69;nan;51786.94;5076060;28;20460;-86
2023/06/19 09:04:46;;;;;;;3.22;2.72;;;;;;;-145.69;nan;51779.03;5076819;28;20198;-88
2023/06/19 09:07:15;;;;;;;2.78;2.22;;;;;;;-145.69;nan;51798.81;5076002;28;20230;-88
2023/06/19 09:09:45;;;;;;;5.03;2.67;;;;;;;-145.69;nan;51783.00;5073785;28;20202;-87
2023/06/19 09:12:15;;;;;;;3.70;2.70;;;;;;;-145.69;nan;51800.81;5075888;28;20206;-86
2023/06/19 09:14:42;;;;;;;3.35;2.45;;;;;;;-145.69;nan;51806.75;5073955;28;20642;-85
2023/06/19 09:17:12;;;;;;;3.28;2.20;;;;;;;-145.69;nan;51818.63;5075468;28;20196;-86
2023/06/19 09:19:39;;;;;;;6.20;2.63;;;;;;;-145.69;nan;51771.09;5074755;28;20229;-86
2023/06/19 09:22:08;;;;;;;2.58;2.28;;;;;;;-145.69;nan;51763.19;5075308;28;20191;-87
2023/06/19 09:24:39;;;;;;;2.80;2.50;;;;;;;-145.69;nan;51796.84;5075763;28;20580;-86
2023/06/19 09:27:12;;;;;;;3.45;2.33;;;;;;;-145.69;nan;51765.16;5075249;28;20194;-84
2023/06/19 09:29:40;;;;;;;3.38;2.97;;;;;;;-145.69;nan;51767.16;5075677;28;20195;-86
2023/06/19 09:32:18;;;;;;;3.60;2.63;;;;;;;-145.69;nan;51794.88;5075631;28;20566;-89
2023/06/19 09:34:48;;;;;;;4.45;2.70;;;;;;;-145.69;nan;51788.94;5075565;28;20202;-86
2023/06/19 09:37:15;;;;;;;3.60;2.80;;;;;;;-145.69;nan;51786.94;5075984;28;20206;-88
2023/06/19 09:39:45;;;;;;;3.58;2.80;;;;;;;-145.69;nan;51751.31;5075923;28;20222;-89
2023/06/19 09:42:16;;;;;;;6.00;3.20;;;;;;;-145.69;nan;51783.00;5073534;28;20225;-87
2023/06/19 09:44:44;;;;;;;6.05;2.95;;;;;;;-145.69;nan;51763.19;5075007;28;20198;-84
2023/06/19 09:47:18;;;;;;;6.78;2.80;;;;;;;-145.69;nan;51775.06;5074009;28;20195;-84
2023/06/19 09:49:50;;;;;;;4.40;3.38;;;;;;;-145.69;nan;51779.03;5076317;28;20242;-89
2023/06/19 09:52:16;;;;;;;5.45;3.10;;;;;;;-145.69;nan;51767.16;5070021;28;20278;-91
2023/06/19 09:54:45;;;;;;;4.70;3.10;;;;;;;-145.69;nan;51731.50;5073188;28;20195;-81
2023/06/19 09:57:12;;;;;;;7.50;3.53;;;;;;;-145.69;nan;51769.13;5074092;28;20206;-81
2023/06/19 09:59:39;;;;;;;3.67;3.30;;;;;;;-145.69;nan;51761.22;5074335;28;20222;-82
2023/06/19 10:02:07;;;;;;;6.45;3.53;;;;;;;-145.69;nan;51769.13;5073824;28;20217;-81
2023/06/19 10:04:45;;;;;;;5.05;3.40;;;;;;;-145.69;nan;51735.47;5074241;28;20206;-84
2023/06/19 10:07:17;;;;;;;4.47;3.13;;;;;;;-145.69;nan;51733.50;5054567;28;20207;-86
2023/06/19 10:09:56;;;;;;;5.82;3.42;;;;;;;-145.69;nan;51731.50;5073998;28;20195;-82
2023/06/19 10:12:22;;;;;;;3.60;3.10;;;;;;;-145.69;nan;51729.53;5074369;28;20272;-85
2023/06/19 10:14:49;;;;;;;6.47;3.08;;;;;;;-145.69;nan;51731.50;5073932;28;20195;-84
2023/06/19 10:17:17;;;;;;;5.95;2.88;;;;;;;-145.69;nan;51697.84;5074395;28;20195;-90
2023/06/19 10:19:51;;;;;;;5.22;3.55;;;;;;;-145.69;nan;51771.09;5074153;28;20219;-81
2023/06/19 10:22:21;;;;;;;4.40;3.38;;;;;;;-145.69;nan;51761.22;5074235;28;20202;-83
2023/06/19 10:24:51;;;;;;;4.05;3.53;;;;;;;-145.69;nan;51759.22;5073802;28;20226;-80
2023/06/19 10:27:22;;;;;;;4.70;3.22;;;;;;;-145.69;nan;51757.25;5074238;28;20203;-79
2023/06/19 10:29:53;;;;;;;4.18;3.30;;;;;;;-145.69;nan;51743.38;5073820;28;20207;-79
2023/06/19 10:32:19;;;;;;;5.78;3.38;;;;;;;-145.69;nan;51715.66;5073874;28;20211;-80
2023/06/19 10:34:48;;;;;;;5.20;3.40;;;;;;;-145.69;nan;51773.09;5073019;28;20195;-80
2023/06/19 10:37:15;;;;;;;4.65;3.15;;;;;;;-145.69;nan;51753.28;5071154;28;20585;-80
2023/06/19 10:39:42;;;;;;;6.95;3.97;;;;;;;-145.69;nan;51759.22;5053232;28;20234;-81
2023/06/19 10:42:10;;;;;;;5.55;3.47;;;;;;;-145.69;nan;51775.06;5053897;28;20586;-80
2023/06/19 10:44:37;;;;;;;7.05;3.33;;;;;;;-145.69;nan;51783.00;5053755;28;20200;-82
2023/06/19 10:47:05;;;;;;;5.72;3.60;;;;;;;-145.69;nan;51771.09;5053824;28;20204;-81
2023/06/19 10:49:31;;;;;;;5.10;3.42;;;;;;;-145.69;nan;51781.00;5053186;28;20455;-82
2023/06/19 10:52:00;;;;;;;4.13;3.28;;;;;;;-145.69;nan;51745.38;5063480;28;20261;-82
2023/06/19 10:54:28;;;;;;;4.00;3.30;;;;;;;-145.69;nan;51763.19;5072762;28;20662;-81
2023/06/19 10:56:57;;;;;;;6.05;3.30;;;;;;;-145.69;nan;51755.25;5073198;28;20194;-82
2023/06/19 10:59:25;;;;;;;5.15;3.60;;;;;;;-145.69;nan;51771.09;5072881;28;20265;-81
2023/06/19 11:01:51;;;;;;;7.03;3.58;;;;;;;-145.69;nan;51729.53;5072594;28;20206;-82
2023/06/19 11:04:18;;;;;;;3.95;3.38;;;;;;;-145.69;nan;51707.75;5072789;28;20198;-82
2023/06/19 11:06:45;;;;;;;4.60;3.40;;;;;;;-145.69;nan;51680.03;5072713;28;20202;-82
2023/06/19 11:09:13;;;;;;;4.93;3.30;;;;;;;-145.69;nan;51737.44;5072901;28;20190;-81
2023/06/19 11:11:42;;;;;;;5.10;3.10;;;;;;;-145.69;nan;51723.59;5072898;28;20285;-82
2023/06/19 11:14:10;;;;;;;4.68;3.30;;;;;;;-145.69;nan;51711.72;5073073;28;20198;-81
2023/06/19 11:16:42;;;;;;;5.75;3.60;;;;;;;-145.69;nan;51711.72;5072428;28;20199;-80
2023/06/19 11:19:09;;;;;;;4.75;3.20;;;;;;;-145.69;nan;51757.25;5068999;28;20225;-81
2023/06/19 11:21:38;;;;;;;5.20;3.17;;;;;;;-145.69;nan;51735.47;5072466;28;20762;-81
2023/06/19 11:24:05;;;;;;;4.28;3.30;;;;;;;-145.69;nan;51755.25;5073066;28;20289;-81
2023/06/19 11:26:36;;;;;;;3.90;3.20;;;;;;;-145.69;nan;51703.78;5072586;28;20289;-80
2023/06/19 11:29:06;;;;;;;4.70;3.45;;;;;;;-145.69;nan;51747.34;5072785;28;20293;-81
2023/06/19 11:31:34;;;;;;;5.05;3.60;;;;;;;-145.69;nan;51737.44;5073059;28;20207;-81
2023/06/19 11:34:02;;;;;;;4.97;3.30;;;;;;;-145.69;nan;51735.47;5072409;28;20214;-79
2023/06/19 11:36:29;;;;;;;4.40;3.55;;;;;;;-145.69;nan;51751.31;5072686;28;20197;-81